Time;durP1;ratioP1;P1;durP2;ratioP2;P2;SDS_P1;SDS_P2;PMS_P1;PMS_P2;Temp;Humidity;BMP_temperature;BMP_pressure;BME280_temperature;BME280_humidity;BME280_pressure;Samples;Min_cycle;Max_cycle;Signal;HPM_P1;HPM_P2
2021/12/23 00:01:39;;;;;;;114.30;52.60;;;;;;;-5.11;100.00;99620.77;2095531;85;21060;-81
2021/12/23 00:04:39;;;;;;;124.90;53.48;;;;;;;-4.99;100.00;99623.28;2095616;85;21017;-82
2021/12/23 00:07:40;;;;;;;97.25;45.92;;;;;;;-4.92;100.00;99620.43;2095575;85;21119;-81
2021/12/23 00:10:41;;;;;;;116.15;48.60;;;;;;;-4.87;100.00;99618.95;2095682;85;21017;-81
2021/12/23 00:13:50;;;;;;;100.90;48.20;;;;;;;-4.89;100.00;99611.36;2095381;85;21072;-79
2021/12/23 00:16:49;;;;;;;96.05;45.67;;;;;;;-4.89;100.00;99602.86;2094791;85;21115;-81
2021/12/23 00:23:24;;;;;;;96.70;47.48;;;;;;;-4.80;100.00;99604.22;2095435;85;21060;-81
2021/12/23 00:26:19;;;;;;;106.97;47.78;;;;;;;-4.68;100.00;99599.88;2128519;81;21045;-81
2021/12/23 00:29:20;;;;;;;98.45;48.30;;;;;;;-4.67;100.00;99604.92;2187543;81;21500;-81
2021/12/23 00:32:21;;;;;;;112.45;48.73;;;;;;;-4.68;100.00;99599.88;2178768;81;21086;-81
2021/12/23 00:35:22;;;;;;;104.03;49.15;;;;;;;-4.64;100.00;99597.16;2170892;82;21500;-80
2021/12/23 00:38:33;;;;;;;99.35;48.75;;;;;;;-4.62;100.00;99597.09;2171639;82;21489;-82
2021/12/23 00:41:31;;;;;;;104.53;49.67;;;;;;;-4.51;100.00;99605.59;2171094;81;21506;-82
2021/12/23 00:44:32;;;;;;;97.92;48.38;;;;;;;-4.49;100.00;99603.79;2171131;81;21002;-80
2021/12/23 00:47:33;;;;;;;100.80;46.35;;;;;;;-4.51;100.00;99594.91;2170916;82;21061;-81
2021/12/23 00:50:34;;;;;;;96.57;48.10;;;;;;;-4.53;100.00;99585.66;2171003;82;21571;-81
2021/12/23 00:53:40;;;;;;;106.30;47.95;;;;;;;-4.48;100.00;99599.05;2171198;81;20974;-82
2021/12/23 00:56:41;;;;;;;98.95;48.00;;;;;;;-4.49;100.00;99594.39;2171252;81;21523;-81
2021/12/23 00:59:41;;;;;;;103.27;48.02;;;;;;;-4.49;100.00;99589.73;2170814;82;21000;-81
2021/12/23 01:02:44;;;;;;;109.55;50.48;;;;;;;-4.50;100.00;99574.84;2170998;81;20990;-81
2021/12/23 01:05:45;;;;;;;110.97;51.53;;;;;;;-4.51;100.00;99577.47;2170933;82;20993;-81
2021/12/23 01:08:46;;;;;;;100.05;48.30;;;;;;;-4.47;100.00;99567.06;2171054;81;20985;-81
2021/12/23 01:11:49;;;;;;;116.50;52.90;;;;;;;-4.49;100.00;99557.33;2171114;81;20989;-82
2021/12/23 01:14:59;;;;;;;103.30;50.55;;;;;;;-4.51;100.00;99562.12;2171210;81;21017;-82
2021/12/23 01:17:56;;;;;;;104.50;51.55;;;;;;;-4.52;100.00;99554.91;2170453;81;21001;-82
2021/12/23 01:21:04;;;;;;;112.68;53.30;;;;;;;-4.55;100.00;99552.49;2171155;81;21522;-81
2021/12/23 01:24:00;;;;;;;116.73;51.75;;;;;;;-4.55;100.00;99546.55;2170792;81;21006;-82
2021/12/23 01:27:02;;;;;;;115.37;51.15;;;;;;;-4.60;100.00;99545.00;2170694;82;21137;-81
2021/12/23 01:30:04;;;;;;;116.95;52.10;;;;;;;-4.61;100.00;99545.07;2171123;81;20974;-82
2021/12/23 01:33:05;;;;;;;121.02;51.58;;;;;;;-4.56;100.00;99542.34;2182208;81;21017;-82
2021/12/23 01:36:05;;;;;;;104.92;48.10;;;;;;;-4.54;100.00;99546.93;2187788;81;21047;-82
2021/12/23 01:39:06;;;;;;;109.92;50.80;;;;;;;-4.53;100.00;99544.30;2187580;81;21032;-83
2021/12/23 01:42:07;;;;;;;109.22;51.45;;;;;;;-4.58;100.00;99548.31;2187685;81;21516;-84
2021/12/23 01:45:08;;;;;;;117.37;51.50;;;;;;;-4.60;100.00;99542.44;2187743;81;21037;-81
2021/12/23 01:48:09;;;;;;;111.28;52.43;;;;;;;-4.62;100.00;99544.23;2187687;81;20985;-81
2021/12/23 01:51:09;;;;;;;107.87;50.33;;;;;;;-4.67;100.00;99529.53;2187791;81;20993;-82
2021/12/23 01:54:10;;;;;;;113.47;51.20;;;;;;;-4.68;100.00;99527.87;2187780;81;21012;-80
2021/12/23 01:57:11;;;;;;;114.12;51.13;;;;;;;-4.74;100.00;99523.04;2187759;81;21004;-81
2021/12/23 02:00:12;;;;;;;117.10;50.55;;;;;;;-4.79;100.00;99516.00;2188045;81;21576;-80
2021/12/23 02:03:13;;;;;;;116.42;51.77;;;;;;;-4.82;100.00;99517.41;2188051;81;20978;-84
2021/12/23 02:06:13;;;;;;;117.90;52.75;;;;;;;-4.84;100.00;99517.10;2187880;81;20992;-82
2021/12/23 02:09:15;;;;;;;126.53;57.00;;;;;;;-4.85;100.00;99506.02;2187865;81;20969;-82
2021/12/23 02:12:16;;;;;;;113.37;55.83;;;;;;;-4.88;100.00;99511.27;2187923;81;21053;-82
2021/12/23 02:15:17;;;;;;;114.70;52.83;;;;;;;-4.93;100.00;99506.81;2187879;81;21002;-82
2021/12/23 02:18:18;;;;;;;112.80;54.20;;;;;;;-5.00;100.00;99513.89;2187785;81;21013;-83
2021/12/23 02:21:18;;;;;;;116.33;52.10;;;;;;;-5.03;100.00;99505.09;2187778;81;20985;-81
2021/12/23 02:24:19;;;;;;;118.33;51.70;;;;;;;-5.05;100.00;99505.57;2187877;81;22182;-82
2021/12/23 02:27:20;;;;;;;121.82;57.13;;;;;;;-5.12;100.00;99499.48;2187879;81;21040;-81
2021/12/23 02:30:22;;;;;;;111.77;51.48;;;;;;;-5.16;100.00;99488.58;2187755;81;21008;-82
2021/12/23 02:33:23;;;;;;;120.08;54.98;;;;;;;-5.18;100.00;99492.92;2176244;81;21078;-82
2021/12/23 02:36:23;;;;;;;117.42;55.90;;;;;;;-5.22;100.00;99494.75;2171265;81;21013;-83
2021/12/23 02:39:25;;;;;;;121.50;54.27;;;;;;;-5.24;100.00;99484.23;2171393;82;21074;-83
2021/12/23 02:42:26;;;;;;;116.22;52.00;;;;;;;-5.29;100.00;99480.59;2171290;81;21033;-83
2021/12/23 02:45:26;;;;;;;110.00;53.83;;;;;;;-5.30;100.00;99476.80;2171294;81;21050;-83
2021/12/23 02:48:29;;;;;;;125.65;56.53;;;;;;;-5.35;100.00;99471.90;2171187;82;20954;-83
2021/12/23 02:51:30;;;;;;;123.58;54.48;;;;;;;-5.33;100.00;99464.17;2171255;81;21118;-82
2021/12/23 02:54:31;;;;;;;112.12;52.62;;;;;;;-5.30;100.00;99469.14;2171356;81;21004;-81
2021/12/23 02:57:32;;;;;;;120.00;55.38;;;;;;;-5.29;100.00;99463.17;2171150;81;21013;-81
2021/12/23 03:00:33;;;;;;;114.08;50.85;;;;;;;-5.28;100.00;99452.06;2171405;81;20989;-81
2021/12/23 03:03:34;;;;;;;125.78;56.53;;;;;;;-5.29;100.00;99444.03;2170939;81;21076;-81
2021/12/23 03:06:35;;;;;;;122.60;55.63;;;;;;;-5.34;100.00;99439.54;2170992;81;21478;-81
2021/12/23 03:09:35;;;;;;;111.72;52.20;;;;;;;-5.41;100.00;99431.73;2170884;82;21042;-82
2021/12/23 03:12:36;;;;;;;118.85;53.08;;;;;;;-5.43;100.00;99429.25;2171000;81;21056;-81
2021/12/23 03:15:37;;;;;;;103.12;49.45;;;;;;;-5.47;100.00;99421.34;2170852;81;20959;-81
2021/12/23 03:18:38;;;;;;;118.93;55.50;;;;;;;-5.56;100.00;99416.17;2170777;81;21021;-82
2021/12/23 03:21:39;;;;;;;123.33;54.60;;;;;;;-5.62;100.00;99413.02;2171032;81;21018;-83
2021/12/23 03:24:40;;;;;;;117.55;54.35;;;;;;;-5.63;100.00;99411.36;2171087;81;21045;-82
2021/12/23 03:27:40;;;;;;;120.70;53.15;;;;;;;-5.68;100.00;99411.53;2171114;81;21085;-82
2021/12/23 03:30:41;;;;;;;119.90;54.15;;;;;;;-5.76;100.00;99413.14;2171311;81;21010;-83
2021/12/23 03:33:42;;;;;;;120.75;53.98;;;;;;;-5.82;100.00;99409.98;2182522;81;21531;-83
2021/12/23 03:36:43;;;;;;;117.62;56.42;;;;;;;-5.88;100.00;99411.05;2187760;81;20986;-83
2021/12/23 03:39:43;;;;;;;124.67;55.55;;;;;;;-5.92;100.00;99407.00;2187682;81;20989;-84
2021/12/23 03:42:44;;;;;;;98.72;47.62;;;;;;;-5.97;100.00;99397.41;2187691;81;21057;-83
2021/12/23 03:45:45;;;;;;;124.53;55.17;;;;;;;-6.03;100.00;99403.59;2187781;81;20918;-82
2021/12/23 03:48:46;;;;;;;122.28;55.90;;;;;;;-6.04;100.00;99402.35;2187689;81;21555;-81
2021/12/23 03:51:47;;;;;;;129.75;57.27;;;;;;;-6.07;100.00;99396.10;2187354;81;21090;-82
2021/12/23 03:54:51;;;;;;;129.30;57.70;;;;;;;-6.04;100.00;99394.70;2187734;81;21008;-83
2021/12/23 03:57:51;;;;;;;126.25;57.60;;;;;;;-6.05;100.00;99375.20;2187736;81;21084;-83
2021/12/23 04:00:52;;;;;;;130.22;57.67;;;;;;;-6.09;100.00;99379.59;2187904;81;21020;-83
2021/12/23 04:03:53;;;;;;;115.92;54.98;;;;;;;-6.15;100.00;99372.17;2187754;81;21023;-83
2021/12/23 04:06:54;;;;;;;135.00;57.67;;;;;;;-6.25;100.00;99368.77;2187872;81;21504;-81
2021/12/23 04:09:55;;;;;;;135.07;58.15;;;;;;;-6.29;100.00;99366.79;2187681;81;21061;-84
2021/12/23 04:12:55;;;;;;;121.25;53.08;;;;;;;-6.28;100.00;99361.25;2187656;81;21492;-84
2021/12/23 04:15:56;;;;;;;123.65;53.83;;;;;;;-6.27;100.00;99362.45;2187704;81;21049;-83
2021/12/23 04:18:57;;;;;;;121.47;54.63;;;;;;;-6.28;100.00;99369.72;2187614;81;21488;-83
2021/12/23 04:21:58;;;;;;;107.83;52.13;;;;;;;-6.30;100.00;99352.39;2187728;81;21083;-82
2021/12/23 04:24:59;;;;;;;115.47;51.18;;;;;;;-6.34;100.00;99345.73;2187731;81;21548;-83
2021/12/23 04:28:01;;;;;;;113.12;52.15;;;;;;;-6.36;100.00;99353.44;2187637;81;21001;-83
2021/12/23 04:31:02;;;;;;;104.40;51.77;;;;;;;-6.35;100.00;99339.80;2187726;81;21067;-83
2021/12/23 04:34:03;;;;;;;114.67;53.20;;;;;;;-6.31;100.00;99335.41;2175753;81;21482;-83
2021/12/23 04:37:04;;;;;;;107.75;48.52;;;;;;;-6.27;100.00;99323.39;2171289;81;21026;-81
2021/12/23 04:40:06;;;;;;;115.92;53.08;;;;;;;-6.29;100.00;99331.55;2171044;81;20919;-84
2021/12/23 04:43:08;;;;;;;118.62;51.33;;;;;;;-6.27;100.00;99331.04;2171181;81;21567;-83
2021/12/23 04:46:10;;;;;;;120.82;52.10;;;;;;;-6.29;100.00;99338.75;2171160;81;21074;-82
2021/12/23 04:49:11;;;;;;;111.95;51.92;;;;;;;-6.32;100.00;99329.92;2171037;82;21014;-81
2021/12/23 04:52:12;;;;;;;110.90;52.43;;;;;;;-6.35;100.00;99314.77;2171134;81;21597;-80
2021/12/23 04:55:13;;;;;;;106.35;48.75;;;;;;;-6.35;100.00;99318.14;2160728;82;20947;-81
2021/12/23 04:58:14;;;;;;;118.77;52.05;;;;;;;-6.35;100.00;99306.67;2171024;81;21037;-81
2021/12/23 05:01:27;;;;;;;123.50;52.70;;;;;;;-6.38;100.00;99304.25;2171164;81;21073;-82
2021/12/23 05:04:23;;;;;;;111.68;54.98;;;;;;;-6.36;100.00;99304.19;2171188;81;21098;-81
2021/12/23 05:07:24;;;;;;;122.00;53.48;;;;;;;-6.37;100.00;99295.72;2171169;81;21010;-80
2021/12/23 05:10:26;;;;;;;119.53;53.05;;;;;;;-6.36;100.00;99296.54;2171211;82;20958;-82
2021/12/23 05:13:26;;;;;;;118.90;52.03;;;;;;;-6.36;100.00;99292.72;2171036;82;21001;-81
2021/12/23 05:16:27;;;;;;;119.75;53.52;;;;;;;-6.34;100.00;99291.76;2171035;81;20963;-82
2021/12/23 05:19:28;;;;;;;117.67;52.83;;;;;;;-6.34;100.00;99287.11;2171122;81;21014;-81
2021/12/23 05:22:29;;;;;;;106.25;53.73;;;;;;;-6.36;100.00;99274.43;2170972;81;21086;-81
2021/12/23 05:25:30;;;;;;;126.05;53.08;;;;;;;-6.38;100.00;99275.39;2171144;82;21544;-82
2021/12/23 05:28:30;;;;;;;104.47;49.70;;;;;;;-6.43;100.00;99269.18;2170975;81;20954;-83
2021/12/23 05:31:31;;;;;;;116.70;54.30;;;;;;;-6.49;100.00;99269.44;2171203;81;21655;-82
2021/12/23 05:34:32;;;;;;;105.27;48.68;;;;;;;-6.53;100.00;99270.88;2183944;81;21044;-85
2021/12/23 05:37:33;;;;;;;113.90;54.13;;;;;;;-6.55;100.00;99267.56;2187452;81;21006;-82
2021/12/23 05:40:35;;;;;;;107.52;53.15;;;;;;;-6.59;100.00;99262.57;2187822;81;21001;-83
2021/12/23 05:43:36;;;;;;;107.43;50.43;;;;;;;-6.61;100.00;99254.61;2187603;81;21005;-81
2021/12/23 05:46:37;;;;;;;95.57;45.12;;;;;;;-6.64;100.00;99250.47;2187780;81;21022;-84
2021/12/23 05:49:38;;;;;;;118.70;54.38;;;;;;;-6.64;100.00;99239.45;2187835;81;21069;-83
2021/12/23 05:52:39;;;;;;;111.30;52.78;;;;;;;-6.66;100.00;99242.52;2187758;81;20970;-84
2021/12/23 05:55:40;;;;;;;111.15;53.63;;;;;;;-6.70;100.00;99220.12;2187727;81;21064;-82
2021/12/23 05:58:40;;;;;;;103.83;50.98;;;;;;;-6.72;100.00;99225.73;2187904;81;20997;-79
2021/12/23 06:01:41;;;;;;;116.45;52.93;;;;;;;-6.73;100.00;99219.43;2187688;81;22002;-79
2021/12/23 06:04:42;;;;;;;120.55;53.48;;;;;;;-6.74;100.00;99214.78;2187696;81;21012;-82
2021/12/23 06:07:43;;;;;;;105.92;52.25;;;;;;;-6.74;100.00;99213.51;2187469;81;20954;-81
2021/12/23 06:10:44;;;;;;;99.30;48.23;;;;;;;-6.76;100.00;99212.75;2188017;81;21595;-82
2021/12/23 06:13:44;;;;;;;115.80;54.95;;;;;;;-6.76;100.00;99219.56;2187419;81;20962;-81
2021/12/23 06:16:45;;;;;;;101.65;48.73;;;;;;;-6.76;100.00;99215.73;2187786;81;20958;-81
2021/12/23 06:19:46;;;;;;;121.47;54.53;;;;;;;-6.76;100.00;99214.47;2187649;81;21053;-85
2021/12/23 06:22:47;;;;;;;116.47;58.52;;;;;;;-6.76;100.00;99216.56;2187685;81;21057;-86
2021/12/23 06:25:48;;;;;;;110.75;54.00;;;;;;;-6.74;100.00;99215.23;2187827;81;21005;-82
2021/12/23 06:28:49;;;;;;;105.85;50.60;;;;;;;-6.76;100.00;99220.39;2187694;81;21045;-82
2021/12/23 06:31:49;;;;;;;117.30;55.48;;;;;;;-6.75;100.00;99212.30;2187645;81;21104;-83
2021/12/23 06:34:50;;;;;;;114.05;54.00;;;;;;;-6.75;100.00;99220.77;2174297;81;21545;-83
2021/12/23 06:37:51;;;;;;;117.40;53.42;;;;;;;-6.75;100.00;99222.04;2171181;82;20963;-80
2021/12/23 06:40:52;;;;;;;109.75;50.63;;;;;;;-6.75;100.00;99223.77;2171269;82;20970;-82
2021/12/23 06:43:53;;;;;;;106.90;52.13;;;;;;;-6.75;100.00;99225.86;2170970;81;21034;-83
2021/12/23 06:46:58;;;;;;;104.12;50.85;;;;;;;-6.75;100.00;99216.95;2171406;81;21055;-84
2021/12/23 06:49:59;;;;;;;122.10;54.85;;;;;;;-6.71;100.00;99218.92;2171282;82;21162;-82
2021/12/23 06:53:00;;;;;;;109.05;52.90;;;;;;;-6.64;100.00;99220.34;2171193;82;21062;-82
2021/12/23 06:56:02;;;;;;;118.25;56.33;;;;;;;-6.64;100.00;99204.62;2171400;82;20971;-83
2021/12/23 06:59:03;;;;;;;125.65;58.55;;;;;;;-6.68;100.00;99206.88;2171260;81;20993;-84
2021/12/23 07:02:04;;;;;;;124.07;59.08;;;;;;;-6.69;100.00;99203.95;2171461;82;21077;-83
2021/12/23 07:05:04;;;;;;;123.82;60.17;;;;;;;-6.67;100.00;99205.19;2171293;81;20954;-83
2021/12/23 07:08:11;;;;;;;139.28;63.08;;;;;;;-6.67;100.00;99198.38;2171446;82;21518;-79
2021/12/23 07:11:11;;;;;;;127.12;60.90;;;;;;;-6.63;100.00;99192.26;2171189;81;21066;-82
2021/12/23 07:14:12;;;;;;;124.95;60.80;;;;;;;-6.58;100.00;99193.37;2171177;82;21485;-81
2021/12/23 07:17:13;;;;;;;120.20;56.20;;;;;;;-6.49;100.00;99187.05;2171253;82;21002;-83
2021/12/23 07:20:13;;;;;;;106.92;54.13;;;;;;;-6.41;100.00;99188.84;2171329;81;20998;-83
2021/12/23 07:23:14;;;;;;;119.45;53.65;;;;;;;-6.38;100.00;99183.20;2171397;81;21017;-83
2021/12/23 07:26:15;;;;;;;112.05;57.50;;;;;;;-6.34;100.00;99183.44;2171321;82;20997;-79
2021/12/23 07:29:16;;;;;;;105.87;54.60;;;;;;;-6.27;100.00;99188.30;2171387;81;21001;-83
2021/12/23 07:32:17;;;;;;;105.35;52.73;;;;;;;-6.19;100.00;99177.34;2171255;82;20990;-80
2021/12/23 07:35:18;;;;;;;113.90;56.68;;;;;;;-6.16;100.00;99166.56;2171275;81;21033;-85
2021/12/23 07:38:19;;;;;;;114.40;55.70;;;;;;;-6.08;100.00;99163.25;2171020;82;20993;-85
2021/12/23 07:41:19;;;;;;;97.55;51.20;;;;;;;-5.97;100.00;99165.34;2171304;82;21029;-86
2021/12/23 07:44:20;;;;;;;109.63;52.15;;;;;;;-5.90;100.00;99165.44;2171177;81;21117;-86
2021/12/23 07:47:22;;;;;;;106.30;52.15;;;;;;;-5.85;100.00;99161.40;2171337;82;20959;-87
2021/12/23 07:50:23;;;;;;;116.33;55.08;;;;;;;-5.75;100.00;99162.69;2171005;81;21002;-86
2021/12/23 07:53:23;;;;;;;101.80;53.70;;;;;;;-5.64;100.00;99163.48;2171214;82;21045;-86
2021/12/23 07:56:24;;;;;;;109.80;51.68;;;;;;;-5.54;100.00;99154.08;2171354;81;21494;-86
2021/12/23 07:59:25;;;;;;;115.08;53.42;;;;;;;-5.43;100.00;99163.80;2171394;81;21006;-86
2021/12/23 08:02:26;;;;;;;111.45;57.95;;;;;;;-5.35;100.00;99160.91;2171276;82;21009;-87
2021/12/23 08:05:27;;;;;;;113.80;59.30;;;;;;;-5.24;100.00;99159.52;2171126;82;20931;-87
2021/12/23 08:08:28;;;;;;;113.50;57.78;;;;;;;-5.13;100.00;99151.81;2171247;81;21009;-85
2021/12/23 08:11:29;;;;;;;95.87;52.78;;;;;;;-5.07;100.00;99148.53;2171118;82;20998;-86
2021/12/23 08:14:30;;;;;;;106.63;53.10;;;;;;;-4.97;100.00;99140.82;2171342;82;21044;-86
2021/12/23 08:17:30;;;;;;;101.95;49.88;;;;;;;-4.91;100.00;99136.71;2171144;81;21041;-85
2021/12/23 08:20:31;;;;;;;103.15;52.62;;;;;;;-4.87;100.00;99125.44;2171364;82;20939;-87
2021/12/23 08:23:32;;;;;;;99.60;54.48;;;;;;;-4.81;100.00;99121.77;2171394;82;21061;-85
2021/12/23 08:26:40;;;;;;;103.22;51.25;;;;;;;-4.73;100.00;99115.84;2171246;82;20998;-86
2021/12/23 08:29:37;;;;;;;104.47;52.95;;;;;;;-4.60;100.00;99111.78;2170667;81;21292;-87
2021/12/23 08:32:38;;;;;;;99.72;51.25;;;;;;;-4.52;100.00;99116.52;2171401;81;21053;-86
2021/12/23 08:35:39;;;;;;;100.80;52.60;;;;;;;-4.42;100.00;99116.89;2185963;81;21030;-87
2021/12/23 08:38:40;;;;;;;105.32;50.95;;;;;;;-4.31;100.00;99112.07;2187656;81;21093;-86
2021/12/23 08:41:41;;;;;;;93.62;47.60;;;;;;;-4.20;100.00;99110.28;2187890;81;20966;-86
2021/12/23 08:44:42;;;;;;;82.45;41.90;;;;;;;-4.12;100.00;99106.40;2187760;81;21036;-87
2021/12/23 08:47:43;;;;;;;105.50;53.38;;;;;;;-4.03;100.00;99099.98;2187658;81;21450;-86
2021/12/23 08:50:43;;;;;;;90.53;47.95;;;;;;;-3.96;100.00;99092.84;2187972;81;21001;-87
2021/12/23 08:53:44;;;;;;;103.55;54.95;;;;;;;-3.84;100.00;99087.07;2187671;81;21048;-87
2021/12/23 08:56:45;;;;;;;98.10;49.65;;;;;;;-3.72;100.00;99083.44;2187929;81;21508;-87
2021/12/23 08:59:46;;;;;;;106.97;52.75;;;;;;;-3.63;100.00;99074.45;2187883;81;20973;-83
2021/12/23 09:02:48;;;;;;;95.95;51.33;;;;;;;-3.51;100.00;99060.16;2187896;81;20969;-86
2021/12/23 09:05:49;;;;;;;105.37;53.63;;;;;;;-3.39;100.00;99055.64;2187793;81;20990;-85
2021/12/23 09:08:51;;;;;;;103.50;55.10;;;;;;;-3.30;100.00;99047.91;2187779;81;21040;-86
2021/12/23 09:11:51;;;;;;;94.32;49.88;;;;;;;-3.22;100.00;99046.58;2187942;81;22147;-87
2021/12/23 09:14:52;;;;;;;95.25;49.18;;;;;;;-3.13;100.00;99041.86;2187817;81;21008;-87
2021/12/23 09:17:53;;;;;;;88.62;48.20;;;;;;;-3.03;100.00;99027.61;2187922;81;20997;-87
2021/12/23 09:20:54;;;;;;;89.65;47.23;;;;;;;-2.94;100.00;99028.38;2187699;81;21065;-88
2021/12/23 09:23:55;;;;;;;94.20;47.80;;;;;;;-2.87;100.00;99028.41;2187699;81;21525;-87
2021/12/23 09:27:16;;;;;;;98.37;50.48;;;;;;;-2.79;100.00;99024.13;2095341;85;22180;-92
2021/12/23 09:33:22;;;;;;;85.70;46.23;;;;;;;-2.62;100.00;99016.29;2095295;85;21080;-86
2021/12/23 09:36:23;;;;;;;70.67;36.98;;;;;;;-2.54;100.00;99008.16;2089263;85;21104;-84
2021/12/23 09:39:24;;;;;;;61.53;33.55;;;;;;;-2.42;100.00;99005.68;2089253;85;21040;-86
2021/12/23 09:42:25;;;;;;;73.83;38.92;;;;;;;-2.23;100.00;99002.84;2089388;85;21061;-87
2021/12/23 09:45:26;;;;;;;87.75;45.88;;;;;;;-2.07;100.00;99002.75;2089395;85;21132;-90
2021/12/23 09:48:26;;;;;;;78.55;40.85;;;;;;;-1.95;100.00;98995.58;2089472;85;21024;-87
2021/12/23 09:51:29;;;;;;;66.17;37.25;;;;;;;-1.82;100.00;98981.55;2089512;85;21107;-89
2021/12/23 09:54:29;;;;;;;66.90;38.60;;;;;;;-1.75;100.00;98984.07;2089283;85;21112;-89
2021/12/23 09:57:30;;;;;;;68.02;36.93;;;;;;;-1.68;100.00;98970.41;2089281;85;21016;-85
2021/12/23 10:00:31;;;;;;;68.35;40.98;;;;;;;-1.59;100.00;98968.08;2089337;85;20961;-84
2021/12/23 10:03:32;;;;;;;79.45;43.52;;;;;;;-1.54;100.00;98962.20;2089312;85;21657;-86
2021/12/23 10:06:33;;;;;;;77.08;42.33;;;;;;;-1.48;100.00;98952.80;2089093;85;20965;-88
2021/12/23 10:30:10;;;;;;;58.13;32.60;;;;;;;-0.94;100.00;98914.16;1995310;89;21068;-83
2021/12/23 10:32:16;;;;;;;53.55;28.98;;;;;;;-0.88;100.00;98909.08;1991947;89;21609;-86
2021/12/23 10:38:03;;;;;;;55.65;27.30;;;;;;;-0.81;100.00;98888.93;1915885;93;21101;-88
2021/12/23 10:41:03;;;;;;;50.35;26.70;;;;;;;-0.80;100.00;98869.54;1916242;93;21089;-91
2021/12/23 10:44:04;;;;;;;57.55;29.37;;;;;;;-0.72;100.00;98874.17;1916160;93;21170;-87
2021/12/23 10:47:07;;;;;;;49.50;27.80;;;;;;;-0.67;100.00;98865.66;1916153;93;21017;-83
2021/12/23 10:50:08;;;;;;;55.40;29.18;;;;;;;-0.57;100.00;98854.62;1917503;93;21172;-83
2021/12/23 10:53:12;;;;;;;50.23;27.75;;;;;;;-0.52;100.00;98847.89;1959901;90;21072;-86
2021/12/23 10:59:31;;;;;;;49.63;26.48;;;;;;;-0.41;100.00;98832.99;2022664;88;21068;-87
2021/12/23 11:02:36;;;;;;;48.30;26.33;;;;;;;-0.41;100.00;98818.84;2022848;88;21630;-82
2021/12/23 11:05:39;;;;;;;50.70;26.57;;;;;;;-0.43;100.00;98815.09;2022178;88;21598;-83
2021/12/23 11:37:53;;;;;;;56.45;31.87;;;;;;;-0.34;100.00;98741.11;2055963;87;21564;-86
2021/12/23 11:40:55;;;;;;;62.70;31.75;;;;;;;-0.30;100.00;98743.81;2107257;82;21032;-87
2021/12/23 11:43:57;;;;;;;56.77;29.00;;;;;;;-0.26;100.00;98743.61;2177408;82;21393;-83
2021/12/23 11:46:57;;;;;;;55.90;28.73;;;;;;;-0.26;100.00;98738.47;2177609;82;21055;-83
2021/12/23 11:49:58;;;;;;;55.05;28.95;;;;;;;-0.28;100.00;98732.11;2177725;82;21028;-82
2021/12/23 11:53:00;;;;;;;50.33;26.87;;;;;;;-0.33;100.00;98721.34;2177907;82;21004;-83
2021/12/23 11:56:01;;;;;;;51.30;28.30;;;;;;;-0.35;100.00;98720.64;2177930;82;20972;-84
2021/12/23 11:59:02;;;;;;;54.53;29.95;;;;;;;-0.38;100.00;98716.52;2177861;82;21008;-84
2021/12/23 12:02:02;;;;;;;50.40;28.98;;;;;;;-0.39;100.00;98704.59;2177992;82;21016;-85
2021/12/23 12:05:03;;;;;;;51.55;28.20;;;;;;;-0.41;100.00;98700.03;2178108;82;21002;-86
2021/12/23 12:08:04;;;;;;;48.73;28.30;;;;;;;-0.41;100.00;98685.88;2177957;82;21004;-85
2021/12/23 12:11:05;;;;;;;51.37;27.05;;;;;;;-0.45;100.00;98674.18;2178043;82;20942;-86
2021/12/23 12:14:06;;;;;;;59.85;29.18;;;;;;;-0.43;100.00;98660.73;2178180;82;21081;-86
2021/12/23 12:17:06;;;;;;;48.38;26.85;;;;;;;-0.44;100.00;98653.95;2178003;82;21093;-86
2021/12/23 12:20:09;;;;;;;49.85;26.70;;;;;;;-0.49;100.00;98652.17;2178011;82;22155;-86
2021/12/23 12:23:13;;;;;;;52.08;26.33;;;;;;;-0.54;100.00;98647.84;2177792;82;21004;-86
2021/12/23 12:26:13;;;;;;;52.80;27.40;;;;;;;-0.57;100.00;98639.86;2177588;82;21040;-86
2021/12/23 12:29:15;;;;;;;52.03;28.40;;;;;;;-0.60;100.00;98636.70;2177824;82;21047;-87
2021/12/23 12:32:16;;;;;;;47.35;24.70;;;;;;;-0.60;100.00;98643.95;2177695;82;21111;-86
2021/12/23 12:35:17;;;;;;;48.58;26.25;;;;;;;-0.56;100.00;98626.53;2174876;81;20982;-86
2021/12/23 12:38:18;;;;;;;47.88;27.30;;;;;;;-0.60;100.00;98633.66;2170898;82;21552;-85
2021/12/23 12:41:19;;;;;;;48.38;26.52;;;;;;;-0.60;100.00;98632.38;2171155;81;21562;-86
2021/12/23 12:44:32;;;;;;;46.45;27.22;;;;;;;-0.56;100.00;98627.81;2171110;81;20997;-86
2021/12/23 12:47:32;;;;;;;51.05;26.40;;;;;;;-0.53;100.00;98624.22;2171023;81;21025;-86
2021/12/23 12:50:30;;;;;;;51.90;27.48;;;;;;;-0.48;100.00;98619.08;2171168;81;21106;-86
2021/12/23 12:53:31;;;;;;;48.35;26.82;;;;;;;-0.46;100.00;98608.20;2171317;81;21031;-86
2021/12/23 12:56:32;;;;;;;43.90;25.12;;;;;;;-0.44;100.00;98597.83;2171304;81;21516;-86
2021/12/23 12:59:33;;;;;;;45.25;26.45;;;;;;;-0.42;100.00;98603.20;2171462;81;20967;-86
2021/12/23 13:02:34;;;;;;;46.80;25.60;;;;;;;-0.40;100.00;98592.80;2171285;82;21093;-85
2021/12/23 13:05:35;;;;;;;46.30;25.50;;;;;;;-0.41;100.00;98593.73;2171178;81;21450;-87
2021/12/23 13:08:39;;;;;;;45.10;25.57;;;;;;;-0.44;100.00;98587.53;2171261;81;21066;-86
2021/12/23 13:11:38;;;;;;;42.45;24.35;;;;;;;-0.49;100.00;98583.18;2171494;81;21516;-87
2021/12/23 13:14:39;;;;;;;45.25;25.80;;;;;;;-0.52;100.00;98575.70;2171096;81;21030;-85
2021/12/23 13:17:40;;;;;;;50.80;28.57;;;;;;;-0.58;100.00;98574.39;2171224;81;21056;-86
2021/12/23 13:20:41;;;;;;;45.28;26.50;;;;;;;-0.62;100.00;98557.09;2171059;81;20981;-86
2021/12/23 13:23:43;;;;;;;47.98;28.27;;;;;;;-0.70;100.00;98552.97;2170911;82;21053;-86
2021/12/23 13:26:44;;;;;;;55.17;28.95;;;;;;;-0.76;100.00;98546.16;2171354;81;21054;-85
2021/12/23 13:29:45;;;;;;;47.90;26.52;;;;;;;-0.84;100.00;98545.90;2171184;81;21026;-85
2021/12/23 13:32:46;;;;;;;49.13;26.75;;;;;;;-0.90;100.00;98540.29;2171260;81;21070;-86
2021/12/23 13:35:47;;;;;;;54.50;28.40;;;;;;;-0.97;100.00;98542.94;2171175;81;21490;-86
2021/12/23 13:38:48;;;;;;;48.45;24.30;;;;;;;-1.01;100.00;98528.66;2171225;82;21021;-85
2021/12/23 13:41:48;;;;;;;41.73;25.15;;;;;;;-1.03;100.00;98520.25;2171244;82;21037;-85
2021/12/23 13:44:51;;;;;;;43.42;26.65;;;;;;;-1.08;100.00;98518.49;2171204;81;21102;-86
2021/12/23 13:47:52;;;;;;;52.70;27.85;;;;;;;-1.11;100.00;98502.45;2171286;82;21070;-85
2021/12/23 13:50:53;;;;;;;45.12;22.25;;;;;;;-1.16;100.00;98503.62;2171868;81;21548;-86
2021/12/23 13:53:57;;;;;;;41.65;23.02;;;;;;;-1.18;100.00;98500.82;2171283;81;21101;-86
2021/12/23 13:56:56;;;;;;;40.08;23.25;;;;;;;-1.25;100.00;98495.30;2170990;81;21013;-86
2021/12/23 13:59:57;;;;;;;46.75;26.20;;;;;;;-1.29;100.00;98488.72;2171521;81;20979;-86
2021/12/23 14:02:58;;;;;;;46.42;25.02;;;;;;;-1.35;100.00;98475.52;2171502;81;21572;-86
2021/12/23 14:06:01;;;;;;;44.60;22.27;;;;;;;-1.41;100.00;98478.52;2171564;82;20975;-86
2021/12/23 14:09:06;;;;;;;50.30;24.72;;;;;;;-1.49;100.00;98478.59;2160737;82;21069;-85
2021/12/23 14:12:07;;;;;;;42.90;24.43;;;;;;;-1.60;100.00;98457.19;2171588;81;21021;-86
2021/12/23 14:15:08;;;;;;;45.75;23.92;;;;;;;-1.67;100.00;98460.64;2171463;82;21063;-84
2021/12/23 14:18:16;;;;;;;44.40;24.95;;;;;;;-1.75;100.00;98457.33;2171325;81;20985;-85
2021/12/23 14:24:31;;;;;;;55.55;28.52;;;;;;;-1.82;100.00;98454.87;2171094;82;21018;-86
2021/12/23 14:27:32;;;;;;;60.98;29.37;;;;;;;-1.88;100.00;98445.48;2171825;82;21030;-85
2021/12/23 14:30:33;;;;;;;51.58;28.12;;;;;;;-1.93;100.00;98438.09;2171233;81;21009;-83
2021/12/23 14:33:33;;;;;;;50.60;23.85;;;;;;;-1.93;100.00;98434.25;2171538;81;20990;-86
2021/12/23 14:36:34;;;;;;;52.85;26.37;;;;;;;-1.95;100.00;98427.12;2182464;81;21032;-89
2021/12/23 14:39:36;;;;;;;46.50;26.45;;;;;;;-1.97;100.00;98424.32;2187901;81;20958;-84
2021/12/23 14:42:37;;;;;;;45.98;26.37;;;;;;;-1.99;100.00;98409.04;2187848;81;20973;-91